sensor_id;sensor_type;location;lat;lon;timestamp;P1;durP1;ratioP1;P2;durP2;ratioP2
58820;SDS011;70670;52.476;13.334;2023-09-07T00:01:49;6.25;;;5.05;;
58820;SDS011;70670;52.476;13.334;2023-09-07T00:04:18;6.22;;;5.63;;
58820;SDS011;70670;52.476;13.334;2023-09-07T00:06:44;11.75;;;5.82;;
58820;SDS011;70670;52.476;13.334;2023-09-07T00:09:09;8.18;;;5.05;;
58820;SDS011;70670;52.476;13.334;2023-09-07T00:11:37;6.68;;;5.53;;
58820;SDS011;70670;52.476;13.334;2023-09-07T00:14:03;8.80;;;5.43;;
58820;SDS011;70670;52.476;13.334;2023-09-07T00:16:32;10.73;;;5.53;;
58820;SDS011;70670;52.476;13.334;2023-09-07T00:19:01;7.18;;;5.18;;
58820;SDS011;70670;52.476;13.334;2023-09-07T00:21:28;7.65;;;5.43;;
58820;SDS011;70670;52.476;13.334;2023-09-07T00:23:54;9.35;;;5.45;;
58820;SDS011;70670;52.476;13.334;2023-09-07T00:26:20;9.00;;;5.63;;
58820;SDS011;70670;52.476;13.334;2023-09-07T00:28:46;11.75;;;6.22;;
58820;SDS011;70670;52.476;13.334;2023-09-07T00:31:12;7.10;;;5.43;;
58820;SDS011;70670;52.476;13.334;2023-09-07T00:33:37;6.85;;;5.93;;
58820;SDS011;70670;52.476;13.334;2023-09-07T00:36:03;5.55;;;5.05;;
58820;SDS011;70670;52.476;13.334;2023-09-07T00:38:29;8.85;;;5.97;;
58820;SDS011;70670;52.476;13.334;2023-09-07T00:40:54;9.48;;;5.85;;
58820;SDS011;70670;52.476;13.334;2023-09-07T00:43:20;7.00;;;5.38;;
58820;SDS011;70670;52.476;13.334;2023-09-07T00:45:46;9.07;;;5.85;;
58820;SDS011;70670;52.476;13.334;2023-09-07T00:48:12;8.35;;;6.03;;
58820;SDS011;70670;52.476;13.334;2023-09-07T00:50:38;9.82;;;5.38;;
58820;SDS011;70670;52.476;13.334;2023-09-07T00:53:04;8.88;;;5.63;;
58820;SDS011;70670;52.476;13.334;2023-09-07T00:55:32;10.27;;;6.25;;
58820;SDS011;70670;52.476;13.334;2023-09-07T00:57:59;10.17;;;6.10;;
58820;SDS011;70670;52.476;13.334;2023-09-07T01:02:54;8.45;;;5.95;;
58820;SDS011;70670;52.476;13.334;2023-09-07T01:05:21;7.75;;;5.95;;
58820;SDS011;70670;52.476;13.334;2023-09-07T01:07:58;10.70;;;5.97;;
58820;SDS011;70670;52.476;13.334;2023-09-07T01:10:29;6.90;;;5.97;;
58820;SDS011;70670;52.476;13.334;2023-09-07T01:12:54;13.10;;;5.88;;
58820;SDS011;70670;52.476;13.334;2023-09-07T01:15:20;8.55;;;6.05;;
58820;SDS011;70670;52.476;13.334;2023-09-07T01:17:45;14.77;;;6.47;;
58820;SDS011;70670;52.476;13.334;2023-09-07T01:20:12;6.40;;;5.80;;
58820;SDS011;70670;52.476;13.334;2023-09-07T01:22:38;6.97;;;5.50;;
58820;SDS011;70670;52.476;13.334;2023-09-07T01:25:05;9.20;;;6.13;;
58820;SDS011;70670;52.476;13.334;2023-09-07T01:27:32;10.80;;;5.97;;
58820;SDS011;70670;52.476;13.334;2023-09-07T01:29:58;6.93;;;5.93;;
58820;SDS011;70670;52.476;13.334;2023-09-07T01:32:24;9.52;;;5.85;;
58820;SDS011;70670;52.476;13.334;2023-09-07T01:34:53;8.80;;;6.63;;
58820;SDS011;70670;52.476;13.334;2023-09-07T01:37:21;10.77;;;6.47;;
58820;SDS011;70670;52.476;13.334;2023-09-07T01:39:47;10.32;;;6.22;;
58820;SDS011;70670;52.476;13.334;2023-09-07T01:42:14;11.45;;;6.05;;
58820;SDS011;70670;52.476;13.334;2023-09-07T01:44:39;8.65;;;6.55;;
58820;SDS011;70670;52.476;13.334;2023-09-07T01:47:05;7.10;;;5.93;;
58820;SDS011;70670;52.476;13.334;2023-09-07T01:49:30;7.22;;;5.47;;
58820;SDS011;70670;52.476;13.334;2023-09-07T01:51:56;7.88;;;6.05;;
58820;SDS011;70670;52.476;13.334;2023-09-07T01:54:22;9.52;;;6.00;;
58820;SDS011;70670;52.476;13.334;2023-09-07T01:56:47;7.03;;;5.35;;
58820;SDS011;70670;52.476;13.334;2023-09-07T01:59:13;9.80;;;6.05;;
58820;SDS011;70670;52.476;13.334;2023-09-07T02:01:38;6.60;;;5.88;;
58820;SDS011;70670;52.476;13.334;2023-09-07T02:04:05;11.18;;;5.85;;
58820;SDS011;70670;52.476;13.334;2023-09-07T02:06:31;10.38;;;6.53;;
58820;SDS011;70670;52.476;13.334;2023-09-07T02:08:57;7.78;;;6.15;;
58820;SDS011;70670;52.476;13.334;2023-09-07T02:11:22;12.43;;;6.55;;
58820;SDS011;70670;52.476;13.334;2023-09-07T02:13:48;8.27;;;6.40;;
58820;SDS011;70670;52.476;13.334;2023-09-07T02:16:14;9.52;;;6.28;;
58820;SDS011;70670;52.476;13.334;2023-09-07T02:18:39;7.07;;;5.70;;
58820;SDS011;70670;52.476;13.334;2023-09-07T02:21:09;9.00;;;6.10;;
58820;SDS011;70670;52.476;13.334;2023-09-07T02:23:35;5.78;;;5.28;;
58820;SDS011;70670;52.476;13.334;2023-09-07T02:26:02;7.93;;;6.30;;
58820;SDS011;70670;52.476;13.334;2023-09-07T02:28:29;12.82;;;6.13;;
58820;SDS011;70670;52.476;13.334;2023-09-07T02:31:01;8.40;;;5.82;;
58820;SDS011;70670;52.476;13.334;2023-09-07T02:33:27;6.65;;;5.78;;
58820;SDS011;70670;52.476;13.334;2023-09-07T02:35:53;9.48;;;6.57;;
58820;SDS011;70670;52.476;13.334;2023-09-07T02:38:19;9.60;;;6.38;;
58820;SDS011;70670;52.476;13.334;2023-09-07T02:40:45;8.68;;;6.28;;
58820;SDS011;70670;52.476;13.334;2023-09-07T02:43:11;10.05;;;5.68;;
58820;SDS011;70670;52.476;13.334;2023-09-07T02:45:37;10.25;;;5.97;;
58820;SDS011;70670;52.476;13.334;2023-09-07T02:48:03;9.13;;;6.07;;
58820;SDS011;70670;52.476;13.334;2023-09-07T02:50:31;8.63;;;6.18;;
58820;SDS011;70670;52.476;13.334;2023-09-07T02:52:57;11.10;;;5.65;;
58820;SDS011;70670;52.476;13.334;2023-09-07T02:55:23;10.18;;;6.20;;
58820;SDS011;70670;52.476;13.334;2023-09-07T02:57:49;9.05;;;6.30;;
58820;SDS011;70670;52.476;13.334;2023-09-07T03:00:15;10.50;;;6.30;;
58820;SDS011;70670;52.476;13.334;2023-09-07T03:02:42;9.60;;;6.65;;
58820;SDS011;70670;52.476;13.334;2023-09-07T03:05:11;11.45;;;6.90;;
58820;SDS011;70670;52.476;13.334;2023-09-07T03:07:36;7.30;;;6.10;;
58820;SDS011;70670;52.476;13.334;2023-09-07T03:10:02;11.00;;;6.28;;
58820;SDS011;70670;52.476;13.334;2023-09-07T03:12:28;12.88;;;5.97;;
58820;SDS011;70670;52.476;13.334;2023-09-07T03:14:54;9.75;;;6.55;;
58820;SDS011;70670;52.476;13.334;2023-09-07T03:17:19;10.55;;;6.20;;
58820;SDS011;70670;52.476;13.334;2023-09-07T03:19:48;9.10;;;5.85;;
58820;SDS011;70670;52.476;13.334;2023-09-07T03:22:13;11.27;;;7.10;;
58820;SDS011;70670;52.476;13.334;2023-09-07T03:24:39;10.55;;;6.05;;
58820;SDS011;70670;52.476;13.334;2023-09-07T03:27:05;14.65;;;6.82;;
58820;SDS011;70670;52.476;13.334;2023-09-07T03:29:31;9.30;;;6.07;;
58820;SDS011;70670;52.476;13.334;2023-09-07T03:31:59;10.45;;;6.32;;
58820;SDS011;70670;52.476;13.334;2023-09-07T03:34:25;8.40;;;6.38;;
58820;SDS011;70670;52.476;13.334;2023-09-07T03:36:50;10.40;;;6.97;;
58820;SDS011;70670;52.476;13.334;2023-09-07T03:39:16;7.47;;;5.90;;
58820;SDS011;70670;52.476;13.334;2023-09-07T03:41:43;8.88;;;6.72;;
58820;SDS011;70670;52.476;13.334;2023-09-07T03:44:09;10.27;;;6.75;;
58820;SDS011;70670;52.476;13.334;2023-09-07T03:46:35;10.05;;;6.18;;
58820;SDS011;70670;52.476;13.334;2023-09-07T03:49:01;12.48;;;6.63;;
58820;SDS011;70670;52.476;13.334;2023-09-07T03:51:26;10.90;;;6.45;;
58820;SDS011;70670;52.476;13.334;2023-09-07T03:53:52;10.88;;;6.07;;
58820;SDS011;70670;52.476;13.334;2023-09-07T03:56:18;7.68;;;6.22;;
58820;SDS011;70670;52.476;13.334;2023-09-07T03:58:43;10.25;;;6.38;;
58820;SDS011;70670;52.476;13.334;2023-09-07T04:01:09;9.57;;;6.40;;
58820;SDS011;70670;52.476;13.334;2023-09-07T04:03:35;9.73;;;6.15;;
58820;SDS011;70670;52.476;13.334;2023-09-07T04:06:00;11.32;;;6.97;;
58820;SDS011;70670;52.476;13.334;2023-09-07T04:08:26;8.32;;;6.72;;
58820;SDS011;70670;52.476;13.334;2023-09-07T04:10:51;11.40;;;5.97;;
58820;SDS011;70670;52.476;13.334;2023-09-07T04:13:17;10.00;;;6.75;;
58820;SDS011;70670;52.476;13.334;2023-09-07T04:15:43;12.07;;;6.75;;
58820;SDS011;70670;52.476;13.334;2023-09-07T04:18:10;10.10;;;6.78;;
58820;SDS011;70670;52.476;13.334;2023-09-07T04:20:38;9.05;;;6.88;;
58820;SDS011;70670;52.476;13.334;2023-09-07T04:23:05;10.82;;;6.85;;
58820;SDS011;70670;52.476;13.334;2023-09-07T04:25:30;14.93;;;7.00;;
58820;SDS011;70670;52.476;13.334;2023-09-07T04:27:58;11.65;;;6.78;;
58820;SDS011;70670;52.476;13.334;2023-09-07T04:30:23;13.15;;;6.70;;
58820;SDS011;70670;52.476;13.334;2023-09-07T04:32:49;17.52;;;6.90;;
58820;SDS011;70670;52.476;13.334;2023-09-07T04:35:15;13.55;;;6.97;;
58820;SDS011;70670;52.476;13.334;2023-09-07T04:37:44;10.45;;;7.15;;
58820;SDS011;70670;52.476;13.334;2023-09-07T04:40:10;12.82;;;7.22;;
58820;SDS011;70670;52.476;13.334;2023-09-07T04:42:36;10.93;;;7.43;;
58820;SDS011;70670;52.476;13.334;2023-09-07T04:45:04;12.77;;;7.78;;
58820;SDS011;70670;52.476;13.334;2023-09-07T04:47:30;14.98;;;7.40;;
58820;SDS011;70670;52.476;13.334;2023-09-07T04:49:56;14.57;;;7.38;;
58820;SDS011;70670;52.476;13.334;2023-09-07T04:52:21;14.65;;;7.60;;
58820;SDS011;70670;52.476;13.334;2023-09-07T04:54:47;14.27;;;7.45;;
58820;SDS011;70670;52.476;13.334;2023-09-07T04:57:15;13.98;;;7.57;;
58820;SDS011;70670;52.476;13.334;2023-09-07T04:59:42;18.50;;;7.70;;
58820;SDS011;70670;52.476;13.334;2023-09-07T05:02:07;14.55;;;8.50;;
58820;SDS011;70670;52.476;13.334;2023-09-07T05:04:33;11.27;;;7.70;;
58820;SDS011;70670;52.476;13.334;2023-09-07T05:06:59;26.00;;;8.13;;
58820;SDS011;70670;52.476;13.334;2023-09-07T05:09:24;18.83;;;8.13;;
58820;SDS011;70670;52.476;13.334;2023-09-07T05:11:50;28.83;;;7.97;;
58820;SDS011;70670;52.476;13.334;2023-09-07T05:14:16;15.32;;;7.68;;
58820;SDS011;70670;52.476;13.334;2023-09-07T05:16:42;18.17;;;7.78;;
58820;SDS011;70670;52.476;13.334;2023-09-07T05:19:08;21.42;;;8.95;;
58820;SDS011;70670;52.476;13.334;2023-09-07T05:21:34;17.92;;;8.30;;
58820;SDS011;70670;52.476;13.334;2023-09-07T05:23:59;12.98;;;8.02;;
58820;SDS011;70670;52.476;13.334;2023-09-07T05:26:25;24.55;;;7.57;;
58820;SDS011;70670;52.476;13.334;2023-09-07T05:28:51;17.35;;;7.60;;
58820;SDS011;70670;52.476;13.334;2023-09-07T05:31:16;23.40;;;8.68;;
58820;SDS011;70670;52.476;13.334;2023-09-07T05:33:42;19.88;;;8.60;;
58820;SDS011;70670;52.476;13.334;2023-09-07T05:36:08;25.95;;;8.23;;
58820;SDS011;70670;52.476;13.334;2023-09-07T05:38:33;26.13;;;7.97;;
58820;SDS011;70670;52.476;13.334;2023-09-07T05:40:59;24.20;;;8.15;;
58820;SDS011;70670;52.476;13.334;2023-09-07T05:43:25;18.20;;;8.35;;
58820;SDS011;70670;52.476;13.334;2023-09-07T05:45:51;27.65;;;9.30;;
58820;SDS011;70670;52.476;13.334;2023-09-07T05:48:16;16.77;;;7.72;;
58820;SDS011;70670;52.476;13.334;2023-09-07T05:50:42;34.03;;;7.45;;
58820;SDS011;70670;52.476;13.334;2023-09-07T05:53:08;25.45;;;7.03;;
58820;SDS011;70670;52.476;13.334;2023-09-07T05:55:34;12.68;;;7.28;;
58820;SDS011;70670;52.476;13.334;2023-09-07T05:57:59;20.95;;;7.13;;
58820;SDS011;70670;52.476;13.334;2023-09-07T06:00:29;18.98;;;8.07;;
58820;SDS011;70670;52.476;13.334;2023-09-07T06:02:54;14.93;;;6.93;;
58820;SDS011;70670;52.476;13.334;2023-09-07T06:05:21;18.10;;;7.85;;
58820;SDS011;70670;52.476;13.334;2023-09-07T06:07:46;16.35;;;6.80;;
58820;SDS011;70670;52.476;13.334;2023-09-07T06:10:12;21.23;;;7.50;;
58820;SDS011;70670;52.476;13.334;2023-09-07T06:12:38;14.65;;;7.30;;
58820;SDS011;70670;52.476;13.334;2023-09-07T06:15:03;11.35;;;7.50;;
58820;SDS011;70670;52.476;13.334;2023-09-07T06:17:29;10.25;;;6.78;;
58820;SDS011;70670;52.476;13.334;2023-09-07T06:19:56;16.17;;;6.57;;
58820;SDS011;70670;52.476;13.334;2023-09-07T06:22:22;11.25;;;6.53;;
58820;SDS011;70670;52.476;13.334;2023-09-07T06:24:48;20.73;;;7.22;;
58820;SDS011;70670;52.476;13.334;2023-09-07T06:27:14;13.02;;;6.38;;
58820;SDS011;70670;52.476;13.334;2023-09-07T06:29:40;11.80;;;6.72;;
58820;SDS011;70670;52.476;13.334;2023-09-07T06:32:05;21.58;;;6.88;;
58820;SDS011;70670;52.476;13.334;2023-09-07T06:34:31;20.77;;;7.70;;
58820;SDS011;70670;52.476;13.334;2023-09-07T06:36:56;12.98;;;7.80;;
58820;SDS011;70670;52.476;13.334;2023-09-07T06:39:22;17.70;;;7.30;;
58820;SDS011;70670;52.476;13.334;2023-09-07T06:41:48;16.27;;;7.15;;
58820;SDS011;70670;52.476;13.334;2023-09-07T06:44:13;11.15;;;6.97;;
58820;SDS011;70670;52.476;13.334;2023-09-07T06:46:39;19.75;;;7.35;;
58820;SDS011;70670;52.476;13.334;2023-09-07T06:49:05;10.52;;;7.10;;
58820;SDS011;70670;52.476;13.334;2023-09-07T06:51:31;9.93;;;6.45;;
58820;SDS011;70670;52.476;13.334;2023-09-07T06:53:57;10.93;;;6.50;;
58820;SDS011;70670;52.476;13.334;2023-09-07T06:56:23;17.75;;;7.32;;
58820;SDS011;70670;52.476;13.334;2023-09-07T06:58:49;20.85;;;7.13;;
58820;SDS011;70670;52.476;13.334;2023-09-07T07:01:14;13.15;;;7.32;;
58820;SDS011;70670;52.476;13.334;2023-09-07T07:03:41;13.05;;;7.13;;
58820;SDS011;70670;52.476;13.334;2023-09-07T07:06:06;11.30;;;7.13;;
58820;SDS011;70670;52.476;13.334;2023-09-07T07:08:32;15.32;;;6.32;;
58820;SDS011;70670;52.476;13.334;2023-09-07T07:10:58;12.75;;;6.80;;
58820;SDS011;70670;52.476;13.334;2023-09-07T07:13:24;12.63;;;6.88;;
58820;SDS011;70670;52.476;13.334;2023-09-07T07:15:49;10.68;;;6.78;;
58820;SDS011;70670;52.476;13.334;2023-09-07T07:18:15;10.75;;;6.60;;
58820;SDS011;70670;52.476;13.334;2023-09-07T07:20:42;12.88;;;6.38;;
58820;SDS011;70670;52.476;13.334;2023-09-07T07:23:09;13.93;;;6.35;;
58820;SDS011;70670;52.476;13.334;2023-09-07T07:25:35;14.00;;;7.18;;
58820;SDS011;70670;52.476;13.334;2023-09-07T07:28:02;11.88;;;6.40;;
58820;SDS011;70670;52.476;13.334;2023-09-07T07:30:32;15.10;;;7.05;;
58820;SDS011;70670;52.476;13.334;2023-09-07T07:33:02;14.43;;;6.20;;
58820;SDS011;70670;52.476;13.334;2023-09-07T07:35:29;16.95;;;6.15;;
58820;SDS011;70670;52.476;13.334;2023-09-07T07:37:55;14.18;;;6.25;;
58820;SDS011;70670;52.476;13.334;2023-09-07T07:40:21;8.70;;;5.97;;
58820;SDS011;70670;52.476;13.334;2023-09-07T07:42:46;11.00;;;5.68;;
58820;SDS011;70670;52.476;13.334;2023-09-07T07:45:12;20.38;;;7.18;;
58820;SDS011;70670;52.476;13.334;2023-09-07T07:47:39;10.15;;;5.63;;
58820;SDS011;70670;52.476;13.334;2023-09-07T07:50:05;12.25;;;5.32;;
58820;SDS011;70670;52.476;13.334;2023-09-07T07:52:31;8.80;;;5.70;;
58820;SDS011;70670;52.476;13.334;2023-09-07T07:54:57;15.82;;;6.15;;
58820;SDS011;70670;52.476;13.334;2023-09-07T07:57:23;12.25;;;6.00;;
58820;SDS011;70670;52.476;13.334;2023-09-07T07:59:48;18.63;;;6.35;;
58820;SDS011;70670;52.476;13.334;2023-09-07T08:02:14;19.48;;;5.95;;
58820;SDS011;70670;52.476;13.334;2023-09-07T08:04:40;12.95;;;5.45;;
58820;SDS011;70670;52.476;13.334;2023-09-07T08:07:05;10.10;;;5.40;;
58820;SDS011;70670;52.476;13.334;2023-09-07T08:09:33;9.50;;;5.45;;
58820;SDS011;70670;52.476;13.334;2023-09-07T08:11:59;12.52;;;5.80;;
58820;SDS011;70670;52.476;13.334;2023-09-07T08:14:28;18.70;;;6.03;;
58820;SDS011;70670;52.476;13.334;2023-09-07T08:16:54;12.50;;;5.43;;
58820;SDS011;70670;52.476;13.334;2023-09-07T08:19:19;20.30;;;6.03;;
58820;SDS011;70670;52.476;13.334;2023-09-07T08:21:45;16.17;;;5.53;;
58820;SDS011;70670;52.476;13.334;2023-09-07T08:24:11;11.60;;;5.32;;
58820;SDS011;70670;52.476;13.334;2023-09-07T08:26:37;8.88;;;5.07;;
58820;SDS011;70670;52.476;13.334;2023-09-07T08:29:03;22.00;;;5.72;;
58820;SDS011;70670;52.476;13.334;2023-09-07T08:31:34;14.50;;;4.27;;
58820;SDS011;70670;52.476;13.334;2023-09-07T08:34:00;9.98;;;4.65;;
58820;SDS011;70670;52.476;13.334;2023-09-07T08:36:29;7.45;;;4.70;;
58820;SDS011;70670;52.476;13.334;2023-09-07T08:38:57;9.63;;;4.60;;
58820;SDS011;70670;52.476;13.334;2023-09-07T08:43:53;14.32;;;4.80;;
58820;SDS011;70670;52.476;13.334;2023-09-07T08:46:20;11.45;;;4.78;;
58820;SDS011;70670;52.476;13.334;2023-09-07T08:48:48;14.32;;;4.80;;
58820;SDS011;70670;52.476;13.334;2023-09-07T08:51:15;6.07;;;4.10;;
58820;SDS011;70670;52.476;13.334;2023-09-07T08:53:43;8.05;;;4.30;;
58820;SDS011;70670;52.476;13.334;2023-09-07T08:56:12;8.73;;;4.20;;
58820;SDS011;70670;52.476;13.334;2023-09-07T08:58:38;14.10;;;4.50;;
58820;SDS011;70670;52.476;13.334;2023-09-07T09:01:05;8.77;;;4.38;;
58820;SDS011;70670;52.476;13.334;2023-09-07T09:03:31;7.80;;;4.05;;
58820;SDS011;70670;52.476;13.334;2023-09-07T09:05:57;10.50;;;4.60;;
58820;SDS011;70670;52.476;13.334;2023-09-07T09:08:22;11.35;;;4.55;;
58820;SDS011;70670;52.476;13.334;2023-09-07T09:10:58;15.57;;;4.28;;
58820;SDS011;70670;52.476;13.334;2023-09-07T09:13:28;10.70;;;3.90;;
58820;SDS011;70670;52.476;13.334;2023-09-07T09:15:54;17.65;;;5.13;;
58820;SDS011;70670;52.476;13.334;2023-09-07T09:18:20;23.08;;;5.00;;
58820;SDS011;70670;52.476;13.334;2023-09-07T09:20:46;12.55;;;4.20;;
58820;SDS011;70670;52.476;13.334;2023-09-07T09:23:11;16.50;;;4.80;;
58820;SDS011;70670;52.476;13.334;2023-09-07T09:25:40;6.63;;;3.90;;
58820;SDS011;70670;52.476;13.334;2023-09-07T09:28:08;9.18;;;4.20;;
58820;SDS011;70670;52.476;13.334;2023-09-07T09:30:34;12.02;;;4.93;;
58820;SDS011;70670;52.476;13.334;2023-09-07T09:33:00;13.68;;;4.53;;
58820;SDS011;70670;52.476;13.334;2023-09-07T09:35:26;8.27;;;4.55;;
58820;SDS011;70670;52.476;13.334;2023-09-07T09:37:52;18.30;;;5.18;;
58820;SDS011;70670;52.476;13.334;2023-09-07T09:40:18;22.80;;;5.50;;
58820;SDS011;70670;52.476;13.334;2023-09-07T09:42:43;15.65;;;5.03;;
58820;SDS011;70670;52.476;13.334;2023-09-07T09:45:10;27.98;;;5.72;;
58820;SDS011;70670;52.476;13.334;2023-09-07T09:47:40;7.72;;;3.88;;
58820;SDS011;70670;52.476;13.334;2023-09-07T09:50:10;9.52;;;4.70;;
58820;SDS011;70670;52.476;13.334;2023-09-07T09:52:36;8.65;;;4.30;;
58820;SDS011;70670;52.476;13.334;2023-09-07T09:55:03;5.82;;;4.20;;
58820;SDS011;70670;52.476;13.334;2023-09-07T09:57:34;9.45;;;3.90;;
58820;SDS011;70670;52.476;13.334;2023-09-07T10:00:01;5.70;;;4.22;;
58820;SDS011;70670;52.476;13.334;2023-09-07T10:02:59;6.57;;;4.03;;
58820;SDS011;70670;52.476;13.334;2023-09-07T10:05:29;10.52;;;4.20;;
58820;SDS011;70670;52.476;13.334;2023-09-07T10:07:59;10.18;;;4.30;;
58820;SDS011;70670;52.476;13.334;2023-09-07T10:10:34;7.50;;;3.72;;
58820;SDS011;70670;52.476;13.334;2023-09-07T10:13:01;5.18;;;3.97;;
58820;SDS011;70670;52.476;13.334;2023-09-07T10:15:29;5.70;;;4.18;;
58820;SDS011;70670;52.476;13.334;2023-09-07T10:18:10;5.15;;;4.40;;
58820;SDS011;70670;52.476;13.334;2023-09-07T10:20:51;8.02;;;3.80;;
58820;SDS011;70670;52.476;13.334;2023-09-07T10:23:19;4.45;;;3.47;;
58820;SDS011;70670;52.476;13.334;2023-09-07T10:25:51;6.00;;;3.75;;
58820;SDS011;70670;52.476;13.334;2023-09-07T10:28:21;5.82;;;4.22;;
58820;SDS011;70670;52.476;13.334;2023-09-07T10:31:04;6.97;;;3.85;;
58820;SDS011;70670;52.476;13.334;2023-09-07T10:33:32;5.68;;;3.80;;
58820;SDS011;70670;52.476;13.334;2023-09-07T10:35:59;5.80;;;3.67;;
58820;SDS011;70670;52.476;13.334;2023-09-07T10:38:26;4.47;;;3.55;;
58820;SDS011;70670;52.476;13.334;2023-09-07T10:40:55;7.53;;;3.83;;
58820;SDS011;70670;52.476;13.334;2023-09-07T10:43:25;13.60;;;4.40;;
58820;SDS011;70670;52.476;13.334;2023-09-07T10:45:53;21.05;;;4.82;;
58820;SDS011;70670;52.476;13.334;2023-09-07T10:48:19;11.38;;;4.20;;
58820;SDS011;70670;52.476;13.334;2023-09-07T10:50:45;6.95;;;3.95;;
58820;SDS011;70670;52.476;13.334;2023-09-07T10:53:15;5.50;;;3.70;;
58820;SDS011;70670;52.476;13.334;2023-09-07T10:58:26;12.85;;;4.35;;
58820;SDS011;70670;52.476;13.334;2023-09-07T11:00:59;8.20;;;4.07;;
58820;SDS011;70670;52.476;13.334;2023-09-07T11:03:25;8.63;;;4.03;;
58820;SDS011;70670;52.476;13.334;2023-09-07T11:05:59;10.10;;;4.53;;
58820;SDS011;70670;52.476;13.334;2023-09-07T11:08:31;9.07;;;3.92;;
58820;SDS011;70670;52.476;13.334;2023-09-07T11:10:58;10.13;;;4.20;;
58820;SDS011;70670;52.476;13.334;2023-09-07T11:13:24;9.35;;;4.10;;
58820;SDS011;70670;52.476;13.334;2023-09-07T11:15:52;11.43;;;4.00;;
58820;SDS011;70670;52.476;13.334;2023-09-07T11:18:20;13.38;;;3.85;;
58820;SDS011;70670;52.476;13.334;2023-09-07T11:20:49;11.27;;;4.38;;
58820;SDS011;70670;52.476;13.334;2023-09-07T11:23:19;8.63;;;3.67;;
58820;SDS011;70670;52.476;13.334;2023-09-07T11:25:46;14.57;;;4.45;;
58820;SDS011;70670;52.476;13.334;2023-09-07T11:28:14;8.50;;;3.65;;
58820;SDS011;70670;52.476;13.334;2023-09-07T11:30:54;8.68;;;4.07;;
58820;SDS011;70670;52.476;13.334;2023-09-07T11:33:21;9.77;;;3.85;;
58820;SDS011;70670;52.476;13.334;2023-09-07T11:35:48;13.98;;;3.97;;
58820;SDS011;70670;52.476;13.334;2023-09-07T11:38:14;10.20;;;4.55;;
58820;SDS011;70670;52.476;13.334;2023-09-07T11:40:40;13.02;;;3.97;;
58820;SDS011;70670;52.476;13.334;2023-09-07T11:43:10;6.22;;;3.45;;
58820;SDS011;70670;52.476;13.334;2023-09-07T11:45:36;9.10;;;3.92;;
58820;SDS011;70670;52.476;13.334;2023-09-07T11:48:01;16.98;;;4.15;;
58820;SDS011;70670;52.476;13.334;2023-09-07T11:50:27;9.02;;;3.13;;
58820;SDS011;70670;52.476;13.334;2023-09-07T11:52:56;4.90;;;2.88;;
58820;SDS011;70670;52.476;13.334;2023-09-07T11:55:22;5.00;;;3.08;;
58820;SDS011;70670;52.476;13.334;2023-09-07T11:57:47;13.48;;;3.25;;
58820;SDS011;70670;52.476;13.334;2023-09-07T12:00:13;8.85;;;3.88;;
58820;SDS011;70670;52.476;13.334;2023-09-07T12:02:40;11.30;;;3.70;;
58820;SDS011;70670;52.476;13.334;2023-09-07T12:05:06;7.28;;;3.70;;
58820;SDS011;70670;52.476;13.334;2023-09-07T12:07:39;7.82;;;4.07;;
58820;SDS011;70670;52.476;13.334;2023-09-07T12:10:06;10.05;;;3.55;;
58820;SDS011;70670;52.476;13.334;2023-09-07T12:12:36;5.78;;;3.25;;
58820;SDS011;70670;52.476;13.334;2023-09-07T12:15:02;10.35;;;3.80;;
58820;SDS011;70670;52.476;13.334;2023-09-07T12:17:30;9.68;;;3.50;;
58820;SDS011;70670;52.476;13.334;2023-09-07T12:19:56;8.55;;;4.63;;
58820;SDS011;70670;52.476;13.334;2023-09-07T12:22:21;9.70;;;3.90;;
58820;SDS011;70670;52.476;13.334;2023-09-07T12:24:47;7.75;;;5.40;;
58820;SDS011;70670;52.476;13.334;2023-09-07T12:27:12;12.02;;;3.72;;
58820;SDS011;70670;52.476;13.334;2023-09-07T12:29:38;4.97;;;4.28;;
58820;SDS011;70670;52.476;13.334;2023-09-07T12:32:04;7.47;;;4.20;;
58820;SDS011;70670;52.476;13.334;2023-09-07T12:34:30;6.25;;;3.38;;
58820;SDS011;70670;52.476;13.334;2023-09-07T12:36:55;7.97;;;3.55;;
58820;SDS011;70670;52.476;13.334;2023-09-07T12:39:21;9.60;;;3.50;;
58820;SDS011;70670;52.476;13.334;2023-09-07T12:41:46;10.90;;;4.63;;
58820;SDS011;70670;52.476;13.334;2023-09-07T12:44:12;7.78;;;3.70;;
58820;SDS011;70670;52.476;13.334;2023-09-07T12:46:38;7.03;;;3.85;;
58820;SDS011;70670;52.476;13.334;2023-09-07T12:49:04;34.22;;;4.90;;
58820;SDS011;70670;52.476;13.334;2023-09-07T12:51:29;26.73;;;4.72;;
58820;SDS011;70670;52.476;13.334;2023-09-07T12:53:56;14.80;;;3.95;;
58820;SDS011;70670;52.476;13.334;2023-09-07T12:56:21;8.07;;;4.22;;
58820;SDS011;70670;52.476;13.334;2023-09-07T12:58:47;8.20;;;3.85;;
58820;SDS011;70670;52.476;13.334;2023-09-07T13:01:12;11.98;;;4.10;;
58820;SDS011;70670;52.476;13.334;2023-09-07T13:03:40;11.80;;;4.18;;
58820;SDS011;70670;52.476;13.334;2023-09-07T13:06:06;10.43;;;3.83;;
58820;SDS011;70670;52.476;13.334;2023-09-07T13:08:32;10.32;;;3.92;;
58820;SDS011;70670;52.476;13.334;2023-09-07T13:10:58;4.60;;;3.50;;
58820;SDS011;70670;52.476;13.334;2023-09-07T13:13:24;24.77;;;4.85;;
58820;SDS011;70670;52.476;13.334;2023-09-07T13:15:54;79.13;;;8.57;;
58820;SDS011;70670;52.476;13.334;2023-09-07T13:18:21;74.53;;;7.88;;
58820;SDS011;70670;52.476;13.334;2023-09-07T13:20:47;32.70;;;4.82;;
58820;SDS011;70670;52.476;13.334;2023-09-07T13:23:15;27.30;;;5.10;;
58820;SDS011;70670;52.476;13.334;2023-09-07T13:25:41;9.88;;;3.90;;
58820;SDS011;70670;52.476;13.334;2023-09-07T13:28:07;14.50;;;4.25;;
58820;SDS011;70670;52.476;13.334;2023-09-07T13:30:32;15.57;;;3.72;;
58820;SDS011;70670;52.476;13.334;2023-09-07T13:32:58;8.50;;;3.45;;
58820;SDS011;70670;52.476;13.334;2023-09-07T13:35:25;13.90;;;4.07;;
58820;SDS011;70670;52.476;13.334;2023-09-07T13:37:50;13.48;;;3.75;;
58820;SDS011;70670;52.476;13.334;2023-09-07T13:40:16;13.65;;;3.80;;
58820;SDS011;70670;52.476;13.334;2023-09-07T13:42:45;16.80;;;3.63;;
58820;SDS011;70670;52.476;13.334;2023-09-07T13:45:13;7.85;;;3.60;;
58820;SDS011;70670;52.476;13.334;2023-09-07T13:47:38;3.47;;;3.13;;
58820;SDS011;70670;52.476;13.334;2023-09-07T13:50:04;15.00;;;3.90;;
58820;SDS011;70670;52.476;13.334;2023-09-07T13:52:30;13.23;;;3.58;;
58820;SDS011;70670;52.476;13.334;2023-09-07T13:54:56;6.32;;;3.30;;
58820;SDS011;70670;52.476;13.334;2023-09-07T13:57:22;20.80;;;4.22;;
58820;SDS011;70670;52.476;13.334;2023-09-07T13:59:47;33.22;;;4.43;;
58820;SDS011;70670;52.476;13.334;2023-09-07T14:02:13;16.98;;;3.47;;
58820;SDS011;70670;52.476;13.334;2023-09-07T14:04:39;4.97;;;3.70;;
58820;SDS011;70670;52.476;13.334;2023-09-07T14:07:05;5.90;;;3.00;;
58820;SDS011;70670;52.476;13.334;2023-09-07T14:09:30;8.15;;;3.38;;
58820;SDS011;70670;52.476;13.334;2023-09-07T14:11:56;10.43;;;3.85;;
58820;SDS011;70670;52.476;13.334;2023-09-07T14:14:22;17.50;;;4.07;;
58820;SDS011;70670;52.476;13.334;2023-09-07T14:16:48;7.35;;;3.90;;
58820;SDS011;70670;52.476;13.334;2023-09-07T14:19:15;8.25;;;3.30;;
58820;SDS011;70670;52.476;13.334;2023-09-07T14:21:41;5.43;;;3.03;;
58820;SDS011;70670;52.476;13.334;2023-09-07T14:24:07;8.75;;;3.85;;
58820;SDS011;70670;52.476;13.334;2023-09-07T14:26:32;7.35;;;3.88;;
58820;SDS011;70670;52.476;13.334;2023-09-07T14:28:58;7.93;;;3.67;;
58820;SDS011;70670;52.476;13.334;2023-09-07T14:31:24;10.10;;;4.07;;